createdAt,value
2023-05-20T05:39:03.370Z,16.65
2023-05-20T05:44:00.553Z,15.75
2023-05-20T05:48:58.922Z,13.50
2023-05-20T05:51:28.567Z,17.63
2023-05-20T05:53:58.118Z,15.00
2023-05-20T05:56:25.934Z,14.88
2023-05-20T05:58:53.948Z,12.27
2023-05-20T06:01:21.898Z,14.23
2023-05-20T06:03:49.961Z,11.67
2023-05-20T06:06:17.701Z,11.25
2023-05-20T06:08:45.309Z,12.18
2023-05-20T06:11:13.650Z,13.10
2023-05-20T06:13:42.740Z,13.73
2023-05-20T06:16:10.637Z,13.30
2023-05-20T06:18:38.304Z,11.82
2023-05-20T06:21:06.819Z,15.82
2023-05-20T06:23:34.517Z,12.40
2023-05-20T06:26:05.239Z,9.20
2023-05-20T06:28:33.247Z,10.43
2023-05-20T06:31:01.125Z,11.93
2023-05-20T06:33:32.791Z,9.57
2023-05-20T06:36:05.755Z,7.72
2023-05-20T06:38:33.671Z,9.40
2023-05-20T06:41:02.151Z,10.82
2023-05-20T06:43:31.207Z,13.45
2023-05-20T06:46:06.582Z,7.95
2023-05-20T06:48:40.009Z,8.70
2023-05-20T06:51:12.207Z,10.07
2023-05-20T06:53:40.976Z,7.38
2023-05-20T06:56:08.723Z,9.77
2023-05-20T06:58:36.428Z,8.73
2023-05-20T07:01:04.197Z,8.32
2023-05-20T07:03:32.105Z,6.78
2023-05-20T07:05:59.923Z,6.85
2023-05-20T07:08:27.728Z,8.10
2023-05-20T07:10:57.204Z,5.93
2023-05-20T07:13:26.213Z,10.77
2023-05-20T07:15:54.059Z,8.38
2023-05-20T07:18:22.077Z,7.63
2023-05-20T07:20:53.761Z,4.75
2023-05-20T07:23:39.749Z,6.95
2023-05-20T07:26:07.567Z,6.00
2023-05-20T07:28:36.754Z,7.50
2023-05-20T07:31:04.823Z,6.85
2023-05-20T07:33:35.173Z,8.57
2023-05-20T07:36:02.897Z,8.13
2023-05-20T07:38:30.686Z,6.88
2023-05-20T07:41:01.961Z,6.35
2023-05-20T07:43:29.642Z,7.25
2023-05-20T07:45:58.466Z,6.50
2023-05-20T07:48:26.224Z,4.95
2023-05-20T07:50:54.106Z,7.53
2023-05-20T07:55:59.521Z,7.57
2023-05-20T07:58:29.871Z,7.93
2023-05-20T08:00:57.868Z,10.35
2023-05-20T08:03:27.265Z,4.65
2023-05-20T08:06:01.430Z,5.70
2023-05-20T08:08:30.722Z,3.13
2023-05-20T08:11:04.425Z,4.97
2023-05-20T08:13:33.279Z,5.63
2023-05-20T08:16:04.192Z,5.07
2023-05-20T08:18:33.548Z,4.22
2023-05-20T08:21:01.216Z,5.97
2023-05-20T08:23:28.955Z,4.72
2023-05-20T08:25:57.635Z,6.68
2023-05-20T08:28:26.337Z,5.25
2023-05-20T08:30:54.886Z,5.95
2023-05-20T08:33:22.649Z,6.10
2023-05-20T08:35:50.661Z,5.25
2023-05-20T08:38:18.750Z,7.72
2023-05-20T08:40:51.841Z,8.13
2023-05-20T08:43:20.088Z,5.85
2023-05-20T08:48:18.487Z,5.90
2023-05-20T08:50:50.673Z,6.75
2023-05-20T08:53:19.369Z,5.00
2023-05-20T08:55:52.801Z,6.55
2023-05-20T08:58:22.149Z,6.07
2023-05-20T09:00:51.280Z,6.30
2023-05-20T09:03:20.420Z,8.63
2023-05-20T09:05:48.548Z,6.45
2023-05-20T09:08:16.256Z,4.60
2023-05-20T09:10:43.941Z,6.72
2023-05-20T09:13:11.988Z,5.40
2023-05-20T09:15:40.500Z,5.35
2023-05-20T09:18:09.146Z,5.82
2023-05-20T09:23:07.968Z,5.22
2023-05-20T09:25:37.269Z,6.43
2023-05-20T09:28:09.343Z,8.70
2023-05-20T09:30:37.032Z,5.38
2023-05-20T09:33:06.015Z,7.85
2023-05-20T09:35:37.852Z,5.40
2023-05-20T09:38:08.111Z,4.95
2023-05-20T09:40:40.454Z,6.32
2023-05-20T09:43:08.801Z,6.43
2023-05-20T09:45:38.443Z,4.72
2023-05-20T09:48:09.274Z,6.03
2023-05-20T09:50:37.363Z,4.57
2023-05-20T09:53:05.263Z,6.72
2023-05-20T09:55:33.742Z,3.75
2023-05-20T10:00:30.416Z,4.80
2023-05-20T10:02:59.326Z,5.45
2023-05-20T10:05:35.994Z,4.70
2023-05-20T10:08:25.942Z,5.65
2023-05-20T10:11:17.629Z,7.05
2023-05-20T10:13:58.838Z,5.80
2023-05-20T10:16:52.668Z,5.03
2023-05-20T10:19:33.159Z,5.30
2023-05-20T10:22:02.867Z,4.53
2023-05-20T10:24:35.206Z,7.00
2023-05-20T10:27:04.924Z,6.15
2023-05-20T10:29:56.494Z,8.07
2023-05-20T10:32:25.986Z,6.82
2023-05-20T10:34:58.226Z,6.22
2023-05-20T10:37:29.677Z,7.25
2023-05-20T10:40:11.690Z,6.60
2023-05-20T10:42:39.897Z,4.82
2023-05-20T10:45:08.931Z,5.18
2023-05-20T10:47:37.405Z,4.75
2023-05-20T10:50:06.224Z,4.75
2023-05-20T10:55:06.599Z,4.00
2023-05-20T10:57:35.014Z,4.75
2023-05-20T11:00:05.117Z,3.78
2023-05-20T11:02:34.331Z,6.15
2023-05-20T11:05:04.197Z,4.10
2023-05-20T11:07:32.675Z,5.38
2023-05-20T11:10:00.370Z,6.15
2023-05-20T11:12:28.496Z,6.25
2023-05-20T11:14:56.317Z,4.03
2023-05-20T11:17:23.992Z,5.47
2023-05-20T11:19:51.782Z,4.63
2023-05-20T11:22:21.991Z,4.75
2023-05-20T11:24:49.758Z,3.97
2023-05-20T11:27:17.505Z,3.53
2023-05-20T11:29:45.440Z,5.43
2023-05-20T11:32:13.449Z,3.97
2023-05-20T11:34:42.737Z,6.57
2023-05-20T11:37:11.739Z,3.38
2023-05-20T11:39:39.520Z,6.35
2023-05-20T11:42:07.200Z,3.73
2023-05-20T11:44:35.093Z,3.60
2023-05-20T11:47:05.472Z,5.07
2023-05-20T11:49:40.293Z,4.38
2023-05-20T11:52:11.347Z,5.60
2023-05-20T11:54:39.013Z,5.97
2023-05-20T11:57:07.298Z,5.70
2023-05-20T11:59:35.251Z,4.57
2023-05-20T12:02:03.150Z,3.10
2023-05-20T12:04:30.823Z,3.20
2023-05-20T12:06:58.432Z,5.50
2023-05-20T12:09:26.122Z,5.45
2023-05-20T12:11:56.079Z,5.30
2023-05-20T12:14:23.710Z,5.43
2023-05-20T12:16:52.834Z,4.50
2023-05-20T12:19:20.563Z,5.20
2023-05-20T12:21:48.236Z,4.90
2023-05-20T12:24:16.034Z,4.68
2023-05-20T12:26:43.739Z,8.30
2023-05-20T12:29:11.376Z,3.90
2023-05-20T12:31:39.165Z,4.60
2023-05-20T12:34:06.969Z,5.77
2023-05-20T12:36:34.750Z,4.90
2023-05-20T12:39:02.318Z,6.77
2023-05-20T12:41:29.967Z,4.60
2023-05-20T12:43:57.594Z,4.38
2023-05-20T12:46:25.376Z,5.38
2023-05-20T12:48:53.298Z,8.53
2023-05-20T12:51:21.239Z,7.23
2023-05-20T12:53:48.996Z,7.38
2023-05-20T12:56:16.857Z,8.95
2023-05-20T12:58:44.513Z,6.50
2023-05-20T13:01:12.149Z,5.03
2023-05-20T13:03:39.793Z,7.50
2023-05-20T13:06:07.566Z,4.37
2023-05-20T13:08:35.176Z,5.23
2023-05-20T13:11:02.835Z,6.13
2023-05-20T13:13:30.733Z,5.70
2023-05-20T13:15:58.877Z,7.85
2023-05-20T13:18:26.521Z,6.85
2023-05-20T13:20:54.196Z,5.75
2023-05-20T13:23:21.813Z,6.13
2023-05-20T13:25:49.477Z,5.03
2023-05-20T13:28:19.065Z,4.20
2023-05-20T13:30:47.144Z,5.82
2023-05-20T13:33:14.828Z,5.95
2023-05-20T13:35:42.470Z,5.32
2023-05-20T13:38:10.477Z,7.80
2023-05-20T13:40:38.125Z,5.75
2023-05-20T13:43:06.204Z,5.57
2023-05-20T13:45:33.879Z,6.88
2023-05-20T13:48:01.573Z,4.13
2023-05-20T13:50:29.240Z,3.70
2023-05-20T13:52:56.909Z,5.95
2023-05-20T13:55:25.077Z,6.33
2023-05-20T13:57:54.388Z,4.47
2023-05-20T14:00:22.514Z,6.25
2023-05-20T14:02:50.589Z,6.85
2023-05-20T14:05:19.078Z,8.38
2023-05-20T14:07:46.989Z,7.45
2023-05-20T14:10:14.900Z,3.92
2023-05-20T14:12:47.943Z,6.33
2023-05-20T14:15:15.699Z,5.63
2023-05-20T14:17:43.457Z,4.70
2023-05-20T14:20:11.715Z,6.60
2023-05-20T14:22:39.604Z,3.00
2023-05-20T14:25:07.758Z,2.85
2023-05-20T14:27:35.490Z,4.70
2023-05-20T14:30:03.816Z,8.33
2023-05-20T14:32:31.703Z,5.75
2023-05-20T14:35:00.237Z,4.55
2023-05-20T14:37:28.247Z,5.10
2023-05-20T14:39:56.252Z,5.15
2023-05-20T14:42:24.109Z,6.57
2023-05-20T14:44:55.546Z,6.00
2023-05-20T14:47:23.873Z,3.55
2023-05-20T14:49:51.592Z,4.50
2023-05-20T14:52:19.571Z,5.97
2023-05-20T14:54:47.447Z,7.38
2023-05-20T14:57:18.116Z,5.25
2023-05-20T14:59:45.979Z,5.22
2023-05-20T15:02:15.547Z,5.30
2023-05-20T15:04:46.519Z,6.35
2023-05-20T15:07:17.663Z,5.55
2023-05-20T15:09:45.491Z,6.20
2023-05-20T15:12:13.226Z,4.68
2023-05-20T15:14:40.869Z,4.20
2023-05-20T15:17:09.081Z,5.13
2023-05-20T15:19:38.981Z,3.83
2023-05-20T15:22:09.125Z,4.93
2023-05-20T15:24:36.876Z,4.75
2023-05-20T15:27:04.865Z,4.10
2023-05-20T15:29:32.643Z,5.13
2023-05-20T15:32:00.557Z,4.37
2023-05-20T15:34:28.173Z,6.40
2023-05-20T15:36:56.041Z,8.50
2023-05-20T15:39:23.749Z,5.18
2023-05-20T15:41:52.395Z,6.45
2023-05-20T15:46:47.689Z,6.47
2023-05-20T15:49:15.359Z,5.07
2023-05-20T15:51:52.175Z,4.20
2023-05-20T15:54:30.001Z,6.03
2023-05-20T15:56:58.130Z,5.25
2023-05-20T15:59:25.911Z,7.13
2023-05-20T16:01:53.616Z,4.43
2023-05-20T16:04:21.807Z,4.17
2023-05-20T16:06:49.625Z,5.75
2023-05-20T16:09:18.439Z,2.95
2023-05-20T16:11:46.857Z,6.95
2023-05-20T16:14:14.510Z,3.95
2023-05-20T16:16:42.197Z,7.90
2023-05-20T16:19:09.993Z,5.47
2023-05-20T16:21:37.763Z,2.87
2023-05-20T16:24:05.621Z,3.50
2023-05-20T16:26:33.300Z,4.87
2023-05-20T16:29:01.334Z,5.70
2023-05-20T16:31:28.970Z,3.85
2023-05-20T16:33:57.514Z,6.10
2023-05-20T16:36:25.898Z,5.07
2023-05-20T16:38:53.695Z,4.63
2023-05-20T16:41:21.551Z,5.40
2023-05-20T16:43:49.141Z,4.72
2023-05-20T16:46:16.948Z,4.85
2023-05-20T16:48:44.680Z,6.20
2023-05-20T16:51:12.258Z,4.67
2023-05-20T16:53:41.092Z,4.07
2023-05-20T16:56:09.052Z,4.55
2023-05-20T16:58:36.680Z,6.72
2023-05-20T17:01:04.308Z,5.95
2023-05-20T17:03:32.198Z,6.37
2023-05-20T17:05:59.944Z,5.20
2023-05-20T17:08:27.607Z,4.13
2023-05-20T17:10:55.821Z,4.83
2023-05-20T17:13:23.441Z,6.25
2023-05-20T17:15:51.245Z,8.95
2023-05-20T17:18:18.933Z,6.23
2023-05-20T17:20:46.655Z,5.35
2023-05-20T17:23:14.941Z,6.25
2023-05-20T17:25:42.796Z,6.70
2023-05-20T17:28:10.905Z,3.13
2023-05-20T17:30:39.945Z,3.90
2023-05-20T17:33:07.852Z,4.47
2023-05-20T17:35:36.642Z,5.70
2023-05-20T17:38:04.441Z,4.18
2023-05-20T17:40:32.272Z,6.55
2023-05-20T17:42:59.965Z,3.60
2023-05-20T17:45:27.611Z,4.07
2023-05-20T17:47:55.553Z,4.07
2023-05-20T17:50:23.414Z,6.63
2023-05-20T17:52:51.108Z,4.00
2023-05-20T17:55:19.165Z,3.65
2023-05-20T17:57:46.888Z,3.00
2023-05-20T18:00:15.727Z,3.77
2023-05-20T18:02:48.145Z,4.70
2023-05-20T18:05:18.857Z,4.50
2023-05-20T18:07:46.830Z,5.13
2023-05-20T18:10:32.682Z,4.55
2023-05-20T18:13:05.454Z,2.50
2023-05-20T18:16:16.340Z,3.20
2023-05-20T18:18:44.020Z,4.03
2023-05-20T18:21:23.509Z,4.37
2023-05-20T18:23:51.537Z,3.78
2023-05-20T18:26:36.516Z,3.90
2023-05-20T18:32:36.568Z,4.47
2023-05-20T18:35:33.386Z,4.78
2023-05-20T18:38:02.806Z,6.32
2023-05-20T18:40:30.700Z,4.43
2023-05-20T18:42:59.072Z,4.67
2023-05-20T18:45:29.888Z,4.35
2023-05-20T18:47:59.867Z,4.82
2023-05-20T18:50:30.981Z,2.30
2023-05-20T18:52:58.984Z,3.88
2023-05-20T18:56:03.037Z,4.00
2023-05-20T18:58:30.832Z,3.65
2023-05-20T19:00:58.677Z,6.30
2023-05-20T19:03:26.530Z,4.57
2023-05-20T19:05:54.683Z,3.00
2023-05-20T19:08:23.261Z,6.00
2023-05-20T19:10:51.895Z,3.42
2023-05-20T19:13:19.756Z,2.28
2023-05-20T19:15:49.712Z,4.10
2023-05-20T19:18:17.557Z,3.78
2023-05-20T19:20:45.237Z,2.60
2023-05-20T19:23:12.915Z,2.78
2023-05-20T19:25:40.610Z,3.47
2023-05-20T19:28:08.234Z,2.92
2023-05-20T19:30:36.118Z,3.55
2023-05-20T19:33:05.203Z,3.55
2023-05-20T19:35:33.751Z,3.20
2023-05-20T19:38:01.586Z,5.13
2023-05-20T19:40:29.174Z,3.40
2023-05-20T19:42:56.821Z,3.15
2023-05-20T19:45:24.521Z,2.65
2023-05-20T19:47:52.366Z,5.68
2023-05-20T19:50:20.120Z,2.05
2023-05-20T19:52:47.826Z,2.45
2023-05-20T19:55:15.735Z,11.38
2023-05-20T19:57:46.493Z,3.03
2023-05-20T20:00:14.400Z,4.45
2023-05-20T20:02:41.965Z,2.92
2023-05-20T20:05:10.073Z,2.25
2023-05-20T20:07:37.804Z,4.57
2023-05-20T20:10:05.919Z,3.33
2023-05-20T20:12:33.470Z,2.63
2023-05-20T20:15:01.248Z,3.25
2023-05-20T20:17:30.308Z,4.55
2023-05-20T20:19:58.125Z,3.95
2023-05-20T20:22:25.850Z,8.13
2023-05-20T20:24:58.379Z,4.07
2023-05-20T20:27:29.328Z,5.35
2023-05-20T20:29:57.142Z,3.25
2023-05-20T20:32:25.131Z,2.38
2023-05-20T20:34:53.789Z,2.47
2023-05-20T20:37:23.048Z,3.15
2023-05-20T20:39:50.658Z,5.45
2023-05-20T20:42:18.664Z,2.85
2023-05-20T20:44:48.388Z,4.93
2023-05-20T20:47:16.460Z,3.65
2023-05-20T20:49:44.087Z,5.53
2023-05-20T20:52:12.459Z,2.28
2023-05-20T20:54:42.192Z,2.88
2023-05-20T20:57:11.611Z,4.13
2023-05-20T20:59:39.875Z,3.75
2023-05-20T21:02:07.466Z,2.45
2023-05-20T21:04:35.174Z,5.63
2023-05-20T21:07:02.937Z,4.35
2023-05-20T21:09:30.463Z,3.20
2023-05-20T21:12:00.400Z,3.53
2023-05-20T21:14:28.114Z,3.90
2023-05-20T21:16:55.806Z,6.93
2023-05-20T21:19:23.510Z,4.05
2023-05-20T21:21:51.124Z,4.95
2023-05-20T21:24:19.817Z,4.15
2023-05-20T21:26:47.428Z,3.80
2023-05-20T21:29:15.345Z,3.83
2023-05-20T21:31:43.010Z,3.85
2023-05-20T21:34:10.773Z,3.88
2023-05-20T21:36:38.507Z,3.90
2023-05-20T21:39:06.482Z,6.97
2023-05-20T21:45:08.016Z,4.63
2023-05-20T21:47:36.061Z,5.35
2023-05-20T22:05:00.604Z,8.13
2023-05-20T22:07:51.321Z,6.93
2023-05-20T22:11:07.761Z,7.60
2023-05-20T22:13:36.349Z,4.88
2023-05-20T22:16:05.081Z,6.18
2023-05-20T22:21:01.597Z,6.97
2023-05-20T22:23:29.654Z,4.70
2023-05-20T22:25:58.390Z,5.57
2023-05-20T22:28:26.689Z,6.35
2023-05-20T22:30:54.910Z,7.97
2023-05-20T22:33:24.441Z,5.20
2023-05-20T22:35:54.028Z,5.93
2023-05-20T22:38:22.206Z,6.40
2023-05-20T22:40:50.473Z,3.85
2023-05-20T22:43:18.446Z,4.97
2023-05-20T22:45:46.598Z,3.70
2023-05-20T22:48:15.402Z,5.20
2023-05-20T22:50:43.465Z,5.50
2023-05-20T22:53:11.857Z,6.03
2023-05-20T22:55:41.219Z,4.70
2023-05-20T22:58:09.371Z,5.90
2023-05-20T23:00:52.865Z,4.53
2023-05-20T23:03:36.234Z,6.50
2023-05-20T23:06:04.541Z,6.38
2023-05-20T23:08:32.750Z,6.35
2023-05-20T23:11:00.885Z,5.03
2023-05-20T23:13:29.162Z,5.47
2023-05-20T23:15:57.877Z,6.72
2023-05-20T23:18:25.957Z,9.75
2023-05-20T23:20:54.219Z,7.33
2023-05-20T23:23:30.631Z,5.57
2023-05-20T23:25:59.922Z,8.13
2023-05-20T23:28:28.355Z,10.32
2023-05-20T23:30:56.745Z,6.72
2023-05-20T23:33:26.215Z,5.95
2023-05-20T23:35:56.985Z,4.32
2023-05-20T23:38:25.256Z,6.57
2023-05-20T23:40:53.421Z,6.10
2023-05-20T23:43:21.603Z,6.93
2023-05-20T23:45:49.784Z,6.73
2023-05-20T23:48:20.012Z,7.00
2023-05-20T23:50:50.286Z,7.38
2023-05-20T23:53:18.410Z,5.72
2023-05-20T23:55:49.673Z,6.18
2023-05-20T23:58:17.972Z,9.93
